createdAt,value
2022-12-16T00:00:06.888Z,-2.15
2022-12-16T00:01:05.915Z,-2.12
2022-12-16T00:02:06.911Z,-2.11
2022-12-16T00:03:06.368Z,-2.09
2022-12-16T00:04:06.821Z,-2.08
2022-12-16T00:05:06.809Z,-2.05
2022-12-16T00:06:06.308Z,-2.05
2022-12-16T00:07:05.788Z,-2.03
2022-12-16T00:08:06.268Z,-2.02
2022-12-16T00:09:05.736Z,-2.02
2022-12-16T00:10:05.757Z,-2.01
2022-12-16T00:11:06.208Z,-2.01
2022-12-16T00:12:06.338Z,-2.00
2022-12-16T00:13:09.012Z,-2.00
2022-12-16T00:14:06.687Z,-1.99
2022-12-16T00:15:05.204Z,-1.97
2022-12-16T00:16:05.749Z,-1.95
2022-12-16T00:17:04.748Z,-1.92
2022-12-16T00:18:05.750Z,-1.90
2022-12-16T00:19:05.638Z,-1.89
2022-12-16T00:20:05.628Z,-1.87
2022-12-16T00:21:05.619Z,-1.86
2022-12-16T00:22:05.609Z,-1.85
2022-12-16T00:23:05.650Z,-1.84
2022-12-16T00:24:05.638Z,-1.84
2022-12-16T00:25:06.068Z,-1.84
2022-12-16T00:26:05.561Z,-1.83
2022-12-16T00:27:05.482Z,-1.81
2022-12-16T00:28:06.069Z,-1.80
2022-12-16T00:29:06.029Z,-1.79
2022-12-16T00:30:06.154Z,-1.77
2022-12-16T00:31:06.059Z,-1.75
2022-12-16T00:32:06.093Z,-1.73
2022-12-16T00:33:05.981Z,-1.71
2022-12-16T00:34:05.968Z,-1.69
2022-12-16T00:35:05.968Z,-1.67
2022-12-16T00:36:05.958Z,-1.65
2022-12-16T00:37:05.442Z,-1.64
2022-12-16T00:38:05.439Z,-1.65
2022-12-16T00:39:05.424Z,-1.62
2022-12-16T00:40:05.175Z,-1.61
2022-12-16T00:41:06.479Z,-1.58
2022-12-16T00:42:05.931Z,-1.56
2022-12-16T00:43:05.893Z,-1.55
2022-12-16T00:44:05.916Z,-1.52
2022-12-16T00:45:05.870Z,-1.52
2022-12-16T00:46:05.437Z,-1.52
2022-12-16T00:47:05.386Z,-1.50
2022-12-16T00:48:05.840Z,-1.50
2022-12-16T00:49:05.826Z,-1.49
2022-12-16T00:50:05.321Z,-1.47
2022-12-16T00:51:05.300Z,-1.46
2022-12-16T00:52:05.810Z,-1.44
2022-12-16T00:53:05.826Z,-1.42
2022-12-16T00:54:05.770Z,-1.41
2022-12-16T00:55:05.762Z,-1.41
2022-12-16T00:56:06.280Z,-1.40
2022-12-16T00:57:05.261Z,-1.39
2022-12-16T00:58:05.732Z,-1.38
2022-12-16T00:59:05.765Z,-1.36
2022-12-16T01:00:05.719Z,-1.35
2022-12-16T01:01:05.306Z,-1.33
2022-12-16T01:02:05.915Z,-1.32
2022-12-16T01:03:05.376Z,-1.31
2022-12-16T01:04:05.183Z,-1.30
2022-12-16T01:05:04.714Z,-1.31
2022-12-16T01:06:05.652Z,-1.32
2022-12-16T01:07:05.153Z,-1.31
2022-12-16T01:08:05.632Z,-1.32
2022-12-16T01:09:05.122Z,-1.31
2022-12-16T01:10:04.887Z,-1.32
2022-12-16T01:11:05.133Z,-1.32
2022-12-16T01:12:05.592Z,-1.33
2022-12-16T01:13:05.571Z,-1.34
2022-12-16T01:14:05.093Z,-1.35
2022-12-16T01:15:04.130Z,-1.35
2022-12-16T01:16:05.596Z,-1.36
2022-12-16T01:17:05.552Z,-1.36
2022-12-16T01:18:05.523Z,-1.36
2022-12-16T01:19:04.092Z,-1.36
2022-12-16T01:20:05.522Z,-1.37
2022-12-16T01:21:04.125Z,-1.36
2022-12-16T01:22:04.995Z,-1.36
2022-12-16T01:23:05.614Z,-1.36
2022-12-16T01:24:04.954Z,-1.36
2022-12-16T01:25:05.463Z,-1.36
2022-12-16T01:26:04.011Z,-1.35
2022-12-16T01:27:04.384Z,-1.36
2022-12-16T01:28:05.423Z,-1.34
2022-12-16T01:29:04.935Z,-1.35
2022-12-16T01:30:04.916Z,-1.35
2022-12-16T01:31:04.883Z,-1.35
2022-12-16T01:32:04.941Z,-1.34
2022-12-16T01:33:04.894Z,-1.32
2022-12-16T01:34:04.853Z,-1.32
2022-12-16T01:35:14.078Z,-1.31
2022-12-16T01:36:06.343Z,-1.30
2022-12-16T01:37:05.344Z,-1.28
2022-12-16T01:38:05.341Z,-1.29
2022-12-16T01:39:04.796Z,-1.27
2022-12-16T01:40:04.794Z,-1.26
2022-12-16T01:41:03.895Z,-1.26
2022-12-16T01:42:05.798Z,-1.26
2022-12-16T01:43:03.835Z,-1.25
2022-12-16T01:44:04.775Z,-1.25
2022-12-16T01:45:04.756Z,-1.25
2022-12-16T01:46:04.786Z,-1.24
2022-12-16T01:47:03.908Z,-1.23
2022-12-16T01:48:03.797Z,-1.21
2022-12-16T01:49:03.788Z,-1.21
2022-12-16T01:50:05.205Z,-1.20
2022-12-16T01:51:05.716Z,-1.19
2022-12-16T01:52:05.191Z,-1.19
2022-12-16T01:53:05.187Z,-1.19
2022-12-16T01:54:05.156Z,-1.17
2022-12-16T01:55:04.651Z,-1.18
2022-12-16T01:56:04.646Z,-1.17
2022-12-16T01:57:04.616Z,-1.17
2022-12-16T01:58:04.626Z,-1.16
2022-12-16T01:59:03.726Z,-1.15
2022-12-16T02:00:05.096Z,-1.14
2022-12-16T02:01:05.153Z,-1.12
2022-12-16T02:02:04.805Z,-1.13
2022-12-16T02:03:05.202Z,-1.11
2022-12-16T02:04:05.056Z,-1.12
2022-12-16T02:05:04.599Z,-1.11
2022-12-16T02:06:04.541Z,-1.11
2022-12-16T02:07:05.007Z,-1.08
2022-12-16T02:08:03.922Z,-1.07
2022-12-16T02:09:05.008Z,-1.05
2022-12-16T02:10:05.499Z,-1.03
2022-12-16T02:11:05.038Z,-1.01
2022-12-16T02:12:04.985Z,-0.98
2022-12-16T02:13:03.527Z,-0.97
2022-12-16T02:14:03.508Z,-0.96
2022-12-16T02:15:03.518Z,-0.95
2022-12-16T02:16:04.920Z,-0.95
2022-12-16T02:17:03.619Z,-0.95
2022-12-16T02:18:03.486Z,-0.96
2022-12-16T02:19:04.941Z,-0.96
2022-12-16T02:20:03.460Z,-0.98
2022-12-16T02:21:03.457Z,-0.99
2022-12-16T02:22:05.369Z,-1.00
2022-12-16T02:23:04.966Z,-1.03
2022-12-16T02:24:05.339Z,-1.05
2022-12-16T02:25:03.400Z,-1.07
2022-12-16T02:26:04.339Z,-1.09
2022-12-16T02:27:04.819Z,-1.11
2022-12-16T02:28:04.801Z,-1.13
2022-12-16T02:29:05.489Z,-1.16
2022-12-16T02:30:04.269Z,-1.18
2022-12-16T02:31:04.704Z,-1.22
2022-12-16T02:32:04.260Z,-1.23
2022-12-16T02:33:04.090Z,-1.25
2022-12-16T02:34:03.331Z,-1.26
2022-12-16T02:35:04.791Z,-1.27
2022-12-16T02:36:04.743Z,-1.28
2022-12-16T02:37:04.720Z,-1.29
2022-12-16T02:38:04.700Z,-1.29
2022-12-16T02:39:04.211Z,-1.30
2022-12-16T02:40:04.689Z,-1.30
2022-12-16T02:41:05.280Z,-1.30
2022-12-16T02:42:04.159Z,-1.30
2022-12-16T02:43:04.160Z,-1.32
2022-12-16T02:44:04.141Z,-1.32
2022-12-16T02:45:04.660Z,-1.33
2022-12-16T02:46:04.642Z,-1.33
2022-12-16T02:47:04.605Z,-1.36
2022-12-16T02:48:04.112Z,-1.37
2022-12-16T02:49:04.560Z,-1.38
2022-12-16T02:50:04.975Z,-1.41
2022-12-16T02:51:04.560Z,-1.44
2022-12-16T02:52:04.545Z,-1.47
2022-12-16T02:53:04.590Z,-1.50
2022-12-16T02:54:04.520Z,-1.52
2022-12-16T02:55:04.031Z,-1.56
2022-12-16T02:56:04.492Z,-1.58
2022-12-16T02:57:03.992Z,-1.61
2022-12-16T02:58:04.483Z,-1.64
2022-12-16T02:59:04.596Z,-1.66
2022-12-16T03:00:04.471Z,-1.70
2022-12-16T03:01:04.480Z,-1.72
2022-12-16T03:02:04.071Z,-1.75
2022-12-16T03:03:04.553Z,-1.78
2022-12-16T03:04:04.441Z,-1.81
2022-12-16T03:05:03.952Z,-1.83
2022-12-16T03:06:03.912Z,-1.84
2022-12-16T03:07:04.404Z,-1.86
2022-12-16T03:08:03.892Z,-1.88
2022-12-16T03:09:03.902Z,-1.90
2022-12-16T03:10:04.373Z,-1.91
2022-12-16T03:11:04.341Z,-1.93
2022-12-16T03:12:04.336Z,-1.94
2022-12-16T03:13:04.321Z,-1.94
2022-12-16T03:14:03.817Z,-1.96
2022-12-16T03:15:03.815Z,-1.97
2022-12-16T03:16:04.393Z,-1.98
2022-12-16T03:17:04.381Z,-2.00
2022-12-16T03:18:04.262Z,-2.01
2022-12-16T03:19:03.773Z,-2.02
2022-12-16T03:20:03.773Z,-2.04
2022-12-16T03:21:03.772Z,-2.05
2022-12-16T03:22:04.331Z,-2.06
2022-12-16T03:23:04.732Z,-2.08
2022-12-16T03:24:04.212Z,-2.09
2022-12-16T03:25:04.232Z,-2.12
2022-12-16T03:26:05.097Z,-2.13
2022-12-16T03:27:04.585Z,-2.15
2022-12-16T03:28:05.129Z,-2.16
2022-12-16T03:29:04.152Z,-2.18
2022-12-16T03:30:03.651Z,-2.19
2022-12-16T03:31:04.725Z,-2.21
2022-12-16T03:32:03.643Z,-2.23
2022-12-16T03:33:03.618Z,-2.24
2022-12-16T03:34:05.068Z,-2.26
2022-12-16T03:35:03.050Z,-2.28
2022-12-16T03:36:04.603Z,-2.30
2022-12-16T03:37:04.104Z,-2.32
2022-12-16T03:38:03.577Z,-2.32
2022-12-16T03:39:03.594Z,-2.35
2022-12-16T03:40:04.093Z,-2.36
2022-12-16T03:41:03.565Z,-2.38
2022-12-16T03:42:04.533Z,-2.40
2022-12-16T03:43:04.015Z,-2.41
2022-12-16T03:44:03.524Z,-2.44
2022-12-16T03:45:03.994Z,-2.46
2022-12-16T03:46:04.466Z,-2.49
2022-12-16T03:47:03.964Z,-2.50
2022-12-16T03:48:03.476Z,-2.54
2022-12-16T03:49:03.964Z,-2.56
2022-12-16T03:50:03.954Z,-2.57
2022-12-16T03:51:03.944Z,-2.58
2022-12-16T03:52:03.514Z,-2.61
2022-12-16T03:53:03.925Z,-2.63
2022-12-16T03:54:03.183Z,-2.65
2022-12-16T03:55:04.394Z,-2.67
2022-12-16T03:56:03.865Z,-2.69
2022-12-16T03:57:03.864Z,-2.70
2022-12-16T03:58:03.416Z,-2.71
2022-12-16T03:59:03.835Z,-2.71
2022-12-16T04:00:04.355Z,-2.73
2022-12-16T04:01:03.924Z,-2.74
2022-12-16T04:02:03.993Z,-2.76
2022-12-16T04:03:03.956Z,-2.76
2022-12-16T04:04:03.376Z,-2.77
2022-12-16T04:05:03.305Z,-2.79
2022-12-16T04:06:03.804Z,-2.79
2022-12-16T04:07:03.269Z,-2.81
2022-12-16T04:08:03.764Z,-2.82
2022-12-16T04:09:03.736Z,-2.82
2022-12-16T04:10:03.294Z,-2.83
2022-12-16T04:11:02.295Z,-2.83
2022-12-16T04:12:03.706Z,-2.84
2022-12-16T04:13:03.216Z,-2.86
2022-12-16T04:14:03.678Z,-2.87
2022-12-16T04:15:03.667Z,-2.87
2022-12-16T04:16:03.757Z,-2.89
2022-12-16T04:17:03.676Z,-2.90
2022-12-16T04:18:02.218Z,-2.93
2022-12-16T04:19:04.146Z,-2.95
2022-12-16T04:20:03.135Z,-2.95
2022-12-16T04:21:04.130Z,-2.96
2022-12-16T04:22:04.226Z,-2.98
2022-12-16T04:23:03.617Z,-2.99
2022-12-16T04:24:02.146Z,-2.99
2022-12-16T04:25:02.154Z,-3.00
2022-12-16T04:26:03.076Z,-3.01
2022-12-16T04:27:03.087Z,-3.02
2022-12-16T04:28:03.171Z,-3.03
2022-12-16T04:29:03.536Z,-3.03
2022-12-16T04:30:03.040Z,-3.05
2022-12-16T04:31:03.081Z,-3.06
2022-12-16T04:32:02.068Z,-3.08
2022-12-16T04:33:03.487Z,-3.09
2022-12-16T04:34:03.000Z,-3.11
2022-12-16T04:35:02.962Z,-3.11
2022-12-16T04:36:02.950Z,-3.13
2022-12-16T04:37:02.961Z,-3.15
2022-12-16T04:38:02.007Z,-3.15
2022-12-16T04:39:02.918Z,-3.17
2022-12-16T04:40:03.534Z,-3.18
2022-12-16T04:41:02.897Z,-3.18
2022-12-16T04:42:02.919Z,-3.19
2022-12-16T04:43:01.961Z,-3.19
2022-12-16T04:44:02.309Z,-3.20
2022-12-16T04:45:03.357Z,-3.19
2022-12-16T04:46:02.038Z,-3.19
2022-12-16T04:47:02.850Z,-3.20
2022-12-16T04:48:01.937Z,-3.20
2022-12-16T04:49:02.849Z,-3.20
2022-12-16T04:50:01.890Z,-3.20
2022-12-16T04:51:03.498Z,-3.20
2022-12-16T04:52:02.817Z,-3.20
2022-12-16T04:53:02.808Z,-3.19
2022-12-16T04:54:02.663Z,-3.19
2022-12-16T04:55:02.969Z,-3.19
2022-12-16T04:56:04.590Z,-3.20
2022-12-16T04:57:04.038Z,-3.21
2022-12-16T04:58:02.835Z,-3.21
2022-12-16T04:59:01.788Z,-3.21
2022-12-16T05:00:01.840Z,-3.21
2022-12-16T05:01:02.820Z,-3.21
2022-12-16T05:02:03.230Z,-3.22
2022-12-16T05:03:03.191Z,-3.23
2022-12-16T05:04:03.275Z,-3.24
2022-12-16T05:05:03.176Z,-3.24
2022-12-16T05:06:02.664Z,-3.24
2022-12-16T05:07:02.699Z,-3.24
2022-12-16T05:08:03.140Z,-3.24
2022-12-16T05:09:01.712Z,-3.25
2022-12-16T05:10:02.689Z,-3.24
2022-12-16T05:11:03.126Z,-3.25
2022-12-16T05:12:03.125Z,-3.26
2022-12-16T05:13:02.603Z,-3.26
2022-12-16T05:14:02.578Z,-3.27
2022-12-16T05:15:03.084Z,-3.27
2022-12-16T05:16:02.622Z,-3.27
2022-12-16T05:17:03.048Z,-3.28
2022-12-16T05:18:02.530Z,-3.29
2022-12-16T05:19:01.592Z,-3.29
2022-12-16T05:20:02.992Z,-3.29
2022-12-16T05:21:03.479Z,-3.30
2022-12-16T05:22:02.509Z,-3.29
2022-12-16T05:23:02.471Z,-3.30
2022-12-16T05:24:02.470Z,-3.30
2022-12-16T05:25:01.534Z,-3.30
2022-12-16T05:26:02.430Z,-3.30
2022-12-16T05:27:02.929Z,-3.29
2022-12-16T05:28:02.462Z,-3.29
2022-12-16T05:29:02.908Z,-3.29
2022-12-16T05:30:02.892Z,-3.28
2022-12-16T05:31:01.519Z,-3.29
2022-12-16T05:32:02.375Z,-3.29
2022-12-16T05:33:02.360Z,-3.28
2022-12-16T05:34:01.549Z,-3.30
2022-12-16T05:35:02.872Z,-3.29
2022-12-16T05:36:01.400Z,-3.29
2022-12-16T05:37:02.841Z,-3.29
2022-12-16T05:38:02.812Z,-3.29
2022-12-16T05:39:02.803Z,-3.29
2022-12-16T05:40:02.801Z,-3.29
2022-12-16T05:41:02.780Z,-3.30
2022-12-16T05:42:02.761Z,-3.28
2022-12-16T05:43:02.751Z,-3.29
2022-12-16T05:44:02.254Z,-3.28
2022-12-16T05:45:02.281Z,-3.28
2022-12-16T05:46:02.860Z,-3.28
2022-12-16T05:47:02.828Z,-3.27
2022-12-16T05:48:02.232Z,-3.26
2022-12-16T05:49:02.202Z,-3.26
2022-12-16T05:50:02.681Z,-3.25
2022-12-16T05:51:02.201Z,-3.23
2022-12-16T05:52:02.662Z,-3.25
2022-12-16T05:53:02.183Z,-3.24
2022-12-16T05:54:02.133Z,-3.24
2022-12-16T05:55:02.132Z,-3.25
2022-12-16T05:56:02.206Z,-3.27
2022-12-16T05:57:02.113Z,-3.27
2022-12-16T05:58:02.112Z,-3.28
2022-12-16T05:59:03.090Z,-3.29
2022-12-16T06:00:02.072Z,-3.28
2022-12-16T06:01:02.565Z,-3.30
2022-12-16T06:02:02.763Z,-3.31
2022-12-16T06:03:02.678Z,-3.29
2022-12-16T06:04:02.135Z,-3.30
2022-12-16T06:05:02.540Z,-3.30
2022-12-16T06:06:02.533Z,-3.30
2022-12-16T06:07:02.013Z,-3.30
2022-12-16T06:08:01.103Z,-3.30
2022-12-16T06:09:02.474Z,-3.30
2022-12-16T06:10:02.004Z,-3.30
2022-12-16T06:11:02.473Z,-3.31
2022-12-16T06:12:01.034Z,-3.30
2022-12-16T06:13:02.858Z,-3.32
2022-12-16T06:14:01.032Z,-3.33
2022-12-16T06:15:02.463Z,-3.33
2022-12-16T06:16:08.142Z,-3.34
2022-12-16T06:17:02.572Z,-3.34
2022-12-16T06:18:01.913Z,-3.35
2022-12-16T06:19:01.903Z,-3.36
2022-12-16T06:20:02.904Z,-3.35
2022-12-16T06:21:02.368Z,-3.35
2022-12-16T06:22:02.853Z,-3.35
2022-12-16T06:23:02.367Z,-3.35
2022-12-16T06:24:01.823Z,-3.35
2022-12-16T06:25:01.853Z,-3.34
2022-12-16T06:26:01.883Z,-3.34
2022-12-16T06:27:01.841Z,-3.33
2022-12-16T06:28:02.311Z,-3.32
2022-12-16T06:29:01.814Z,-3.30
2022-12-16T06:30:01.794Z,-3.30
2022-12-16T06:31:03.196Z,-3.28
2022-12-16T06:32:01.897Z,-3.26
2022-12-16T06:33:02.266Z,-3.24
2022-12-16T06:34:02.223Z,-3.21
2022-12-16T06:35:02.223Z,-3.18
2022-12-16T06:36:01.723Z,-3.18
2022-12-16T06:37:01.714Z,-3.16
2022-12-16T06:38:02.233Z,-3.15
2022-12-16T06:39:02.182Z,-3.13
2022-12-16T06:40:02.204Z,-3.12
2022-12-16T06:41:02.202Z,-3.11
2022-12-16T06:42:01.668Z,-3.11
2022-12-16T06:43:00.732Z,-3.10
2022-12-16T06:44:01.677Z,-3.10
2022-12-16T06:45:02.116Z,-3.11
2022-12-16T06:46:02.144Z,-3.11
2022-12-16T06:47:03.012Z,-3.11
2022-12-16T06:48:01.606Z,-3.13
2022-12-16T06:49:01.595Z,-3.13
2022-12-16T06:50:02.167Z,-3.12
2022-12-16T06:51:01.578Z,-3.12
2022-12-16T06:52:01.426Z,-3.11
2022-12-16T06:53:02.055Z,-3.09
2022-12-16T06:54:02.015Z,-3.07
2022-12-16T06:55:01.536Z,-3.05
2022-12-16T06:56:02.545Z,-3.04
2022-12-16T06:57:02.020Z,-3.02
2022-12-16T06:58:05.418Z,-3.01
2022-12-16T06:59:01.546Z,-2.98
2022-12-16T07:00:01.996Z,-2.96
2022-12-16T07:01:02.906Z,-2.94
2022-12-16T07:02:01.627Z,-2.93
2022-12-16T07:03:01.541Z,-2.92
2022-12-16T07:04:01.936Z,-2.90
2022-12-16T07:05:01.915Z,-2.89
2022-12-16T07:06:01.909Z,-2.86
2022-12-16T07:07:01.395Z,-2.84
2022-12-16T07:08:01.427Z,-2.83
2022-12-16T07:09:01.879Z,-2.81
2022-12-16T07:10:01.356Z,-2.78
2022-12-16T07:11:13.917Z,-2.77
2022-12-16T07:12:02.436Z,-2.75
2022-12-16T07:13:01.827Z,-2.73
2022-12-16T07:14:01.372Z,-2.71
2022-12-16T07:15:01.307Z,-2.69
2022-12-16T07:16:01.804Z,-2.69
2022-12-16T07:17:01.296Z,-2.67
2022-12-16T07:18:01.271Z,-2.65
2022-12-16T07:19:01.757Z,-2.62
2022-12-16T07:20:01.798Z,-2.59
2022-12-16T07:21:01.738Z,-2.56
2022-12-16T07:22:01.727Z,-2.54
2022-12-16T07:23:07.795Z,-2.52
2022-12-16T07:24:02.708Z,-2.50
2022-12-16T07:25:01.697Z,-2.47
2022-12-16T07:26:01.225Z,-2.45
2022-12-16T07:27:01.689Z,-2.42
2022-12-16T07:28:01.657Z,-2.40
2022-12-16T07:29:01.152Z,-2.39
2022-12-16T07:30:01.656Z,-2.37
2022-12-16T07:31:01.678Z,-2.36
2022-12-16T07:32:01.193Z,-2.35
2022-12-16T07:33:01.619Z,-2.32
2022-12-16T07:34:01.599Z,-2.30
2022-12-16T07:35:01.609Z,-2.29
2022-12-16T07:36:01.078Z,-2.29
2022-12-16T07:37:01.567Z,-2.27
2022-12-16T07:38:01.608Z,-2.25
2022-12-16T07:39:01.548Z,-2.22
2022-12-16T07:40:01.537Z,-2.20
2022-12-16T07:41:01.528Z,-2.16
2022-12-16T07:42:01.511Z,-2.13
2022-12-16T07:43:01.012Z,-2.09
2022-12-16T07:44:01.612Z,-2.06
2022-12-16T07:45:01.489Z,-2.02
2022-12-16T07:46:01.541Z,-1.97
2022-12-16T07:47:03.383Z,-1.95
2022-12-16T07:48:00.949Z,-1.92
2022-12-16T07:49:01.978Z,-1.88
2022-12-16T07:50:01.475Z,-1.85
2022-12-16T07:51:00.927Z,-1.81
2022-12-16T07:52:00.919Z,-1.78
2022-12-16T07:53:00.908Z,-1.75
2022-12-16T07:54:00.900Z,-1.73
2022-12-16T07:55:00.897Z,-1.71
2022-12-16T07:56:01.499Z,-1.71
2022-12-16T07:57:01.059Z,-1.69
2022-12-16T07:58:01.351Z,-1.68
2022-12-16T07:59:00.861Z,-1.67
2022-12-16T08:00:01.329Z,-1.67
2022-12-16T08:01:04.972Z,-1.65
2022-12-16T08:02:02.473Z,-1.65
2022-12-16T08:03:01.418Z,-1.62
2022-12-16T08:04:00.058Z,-1.60
2022-12-16T08:05:01.280Z,-1.60
2022-12-16T08:06:01.693Z,-1.58
2022-12-16T08:06:59.914Z,-1.59
2022-12-16T08:08:01.360Z,-1.58
2022-12-16T08:09:01.252Z,-1.57
2022-12-16T08:10:01.220Z,-1.58
2022-12-16T08:11:00.731Z,-1.57
2022-12-16T08:12:01.201Z,-1.55
2022-12-16T08:13:01.192Z,-1.55
2022-12-16T08:14:01.211Z,-1.52
2022-12-16T08:15:01.172Z,-1.51
2022-12-16T08:16:01.160Z,-1.50
2022-12-16T08:17:00.755Z,-1.47
2022-12-16T08:18:01.177Z,-1.45
2022-12-16T08:19:04.852Z,-1.43
2022-12-16T08:20:01.512Z,-1.40
2022-12-16T08:21:01.122Z,-1.37
2022-12-16T08:22:01.621Z,-1.33
2022-12-16T08:23:01.164Z,-1.29
2022-12-16T08:24:01.512Z,-1.23
2022-12-16T08:25:01.073Z,-1.18
2022-12-16T08:26:01.201Z,-1.13
2022-12-16T08:27:01.061Z,-1.07
2022-12-16T08:28:01.041Z,-1.02
2022-12-16T08:29:20.231Z,-0.95
2022-12-16T08:30:02.022Z,-0.89
2022-12-16T08:30:59.623Z,-0.83
2022-12-16T08:32:01.113Z,-0.78
2022-12-16T08:34:01.643Z,-0.68
2022-12-16T08:35:00.482Z,-0.65
2022-12-16T08:36:00.472Z,-0.61
2022-12-16T08:37:00.943Z,-0.59
2022-12-16T08:38:00.982Z,-0.57
2022-12-16T08:39:00.924Z,-0.56
2022-12-16T08:40:26.121Z,-0.54
2022-12-16T08:41:01.428Z,-0.52
2022-12-16T08:42:00.423Z,-0.52
2022-12-16T08:43:00.886Z,-0.50
2022-12-16T08:44:00.903Z,-0.48
2022-12-16T08:45:00.379Z,-0.46
2022-12-16T08:46:00.928Z,-0.49
2022-12-16T08:47:00.363Z,-0.47
2022-12-16T08:48:00.869Z,-0.47
2022-12-16T08:49:00.837Z,-0.46
2022-12-16T08:50:02.024Z,-0.45
2022-12-16T08:51:00.355Z,-0.43
2022-12-16T08:52:01.222Z,-0.40
2022-12-16T08:53:00.797Z,-0.38
2022-12-16T08:54:01.274Z,-0.35
2022-12-16T08:55:00.762Z,-0.31
2022-12-16T08:56:00.784Z,-0.29
2022-12-16T08:57:00.738Z,-0.26
2022-12-16T08:57:59.304Z,-0.23
2022-12-16T08:59:00.712Z,-0.20
2022-12-16T09:00:00.694Z,-0.16
2022-12-16T09:01:06.684Z,-0.12
2022-12-16T09:02:01.377Z,-0.09
2022-12-16T09:03:00.463Z,-0.06
2022-12-16T09:03:59.421Z,-0.03
2022-12-16T09:05:00.801Z,-0.01
2022-12-16T09:06:00.135Z,0.01
2022-12-16T09:07:00.179Z,0.05
2022-12-16T09:08:00.167Z,0.09
2022-12-16T09:09:00.668Z,0.12
2022-12-16T09:09:59.203Z,0.16
2022-12-16T09:10:59.185Z,0.21
2022-12-16T09:11:59.168Z,0.25
2022-12-16T09:13:00.105Z,0.32
2022-12-16T09:14:00.619Z,0.38
2022-12-16T09:15:00.068Z,0.47
2022-12-16T09:15:59.188Z,0.55
2022-12-16T09:16:59.119Z,0.65
2022-12-16T09:18:00.517Z,0.74
2022-12-16T09:19:00.516Z,0.83
2022-12-16T09:20:00.108Z,0.91
2022-12-16T09:20:59.998Z,0.97
2022-12-16T09:21:59.059Z,1.04
2022-12-16T09:22:59.048Z,1.05
2022-12-16T09:24:00.458Z,1.04
2022-12-16T09:25:00.438Z,1.05
2022-12-16T09:26:00.524Z,1.05
2022-12-16T09:27:00.438Z,1.07
2022-12-16T09:27:58.987Z,1.07
2022-12-16T09:28:59.377Z,1.08
2022-12-16T09:29:59.931Z,1.10
2022-12-16T09:30:59.969Z,1.10
2022-12-16T09:32:01.341Z,1.13
2022-12-16T09:33:00.370Z,1.14
2022-12-16T09:33:58.928Z,1.17
2022-12-16T09:34:58.926Z,1.20
2022-12-16T09:36:00.360Z,1.24
2022-12-16T09:36:59.840Z,1.27
2022-12-16T09:38:00.318Z,1.30
2022-12-16T09:38:59.789Z,1.32
2022-12-16T09:39:58.859Z,1.35
2022-12-16T09:41:00.289Z,1.36
2022-12-16T09:41:59.749Z,1.39
2022-12-16T09:43:00.311Z,1.42
2022-12-16T09:44:00.251Z,1.45
2022-12-16T09:45:00.258Z,1.47
2022-12-16T09:46:00.328Z,1.49
2022-12-16T09:47:05.000Z,1.53
2022-12-16T09:48:01.270Z,1.56
2022-12-16T09:49:00.210Z,1.59
2022-12-16T09:50:00.200Z,1.60
2022-12-16T09:51:00.196Z,1.61
2022-12-16T09:52:00.169Z,1.62
2022-12-16T09:53:00.161Z,1.63
2022-12-16T09:54:00.235Z,1.64
2022-12-16T09:54:58.709Z,1.64
2022-12-16T09:56:00.139Z,1.62
2022-12-16T09:56:58.699Z,1.63
2022-12-16T09:58:00.130Z,1.65
2022-12-16T09:59:00.102Z,1.67
2022-12-16T10:00:00.091Z,1.69
2022-12-16T10:00:59.581Z,1.71
2022-12-16T10:02:00.233Z,1.73
2022-12-16T10:03:06.347Z,1.75
2022-12-16T10:04:01.171Z,1.77
2022-12-16T10:05:00.042Z,1.80
2022-12-16T10:06:00.110Z,1.81
2022-12-16T10:07:00.021Z,1.84
2022-12-16T10:07:58.560Z,1.85
2022-12-16T10:08:58.550Z,1.88
2022-12-16T10:09:58.572Z,1.91
2022-12-16T10:10:59.475Z,1.94
2022-12-16T10:11:59.981Z,1.96
2022-12-16T10:12:59.966Z,1.98
2022-12-16T10:13:59.951Z,2.01
2022-12-16T10:14:58.665Z,2.05
2022-12-16T10:16:00.046Z,2.06
2022-12-16T10:16:58.501Z,2.08
2022-12-16T10:18:00.093Z,2.10
2022-12-16T10:18:59.477Z,2.11
2022-12-16T10:20:03.467Z,2.15
2022-12-16T10:21:00.872Z,2.18
2022-12-16T10:21:59.853Z,2.23
2022-12-16T10:22:59.848Z,2.27
2022-12-16T10:23:59.855Z,2.33
2022-12-16T10:24:59.823Z,2.39
2022-12-16T10:25:59.815Z,2.44
2022-12-16T10:26:58.363Z,2.47
2022-12-16T10:28:00.274Z,2.49
2022-12-16T10:28:59.793Z,2.52
2022-12-16T10:29:59.297Z,2.55
2022-12-16T10:30:59.377Z,2.58
2022-12-16T10:31:58.304Z,2.61
2022-12-16T10:32:59.253Z,2.64
2022-12-16T10:33:58.323Z,2.67
2022-12-16T10:34:59.724Z,2.70
2022-12-16T10:35:59.255Z,2.74
2022-12-16T10:36:59.717Z,2.78
2022-12-16T10:37:59.165Z,2.82
2022-12-16T10:38:58.243Z,2.85
2022-12-16T10:39:59.686Z,2.89
2022-12-16T10:40:59.665Z,2.92
2022-12-16T10:41:59.195Z,2.95
2022-12-16T10:42:59.634Z,2.95
2022-12-16T10:43:59.626Z,2.96
2022-12-16T10:44:59.626Z,2.95
2022-12-16T10:45:59.675Z,2.97
2022-12-16T10:46:59.160Z,2.98
2022-12-16T10:47:58.176Z,2.99
2022-12-16T10:49:00.544Z,3.01
2022-12-16T10:49:58.196Z,3.02
2022-12-16T10:50:59.548Z,3.02
2022-12-16T10:51:58.176Z,3.02
2022-12-16T10:52:59.555Z,3.04
2022-12-16T10:53:59.545Z,3.06
2022-12-16T10:54:59.506Z,3.08
2022-12-16T10:55:58.065Z,3.10
2022-12-16T10:56:58.055Z,3.11
2022-12-16T10:57:59.487Z,3.11
2022-12-16T10:58:59.467Z,3.11
2022-12-16T10:59:59.586Z,3.11
2022-12-16T11:00:59.465Z,3.13
2022-12-16T11:01:59.562Z,3.14
2022-12-16T11:02:58.175Z,3.17
2022-12-16T11:03:59.498Z,3.19
2022-12-16T11:04:57.966Z,3.22
2022-12-16T11:05:58.041Z,3.25
2022-12-16T11:06:58.467Z,3.27
2022-12-16T11:07:57.940Z,3.29
2022-12-16T11:08:59.363Z,3.33
2022-12-16T11:09:58.837Z,3.39
2022-12-16T11:10:57.896Z,3.46
2022-12-16T11:11:59.378Z,3.49
2022-12-16T11:12:59.307Z,3.52
2022-12-16T11:13:57.867Z,3.56
2022-12-16T11:15:28.798Z,3.60
2022-12-16T11:15:59.818Z,3.66
2022-12-16T11:16:57.829Z,3.70
2022-12-16T11:17:59.298Z,3.74
2022-12-16T11:18:59.296Z,3.76
2022-12-16T11:19:57.809Z,3.74
2022-12-16T11:20:57.808Z,3.76
2022-12-16T11:21:59.238Z,3.80
2022-12-16T11:22:59.219Z,3.85
2022-12-16T11:23:58.768Z,3.86
2022-12-16T11:24:57.751Z,3.87
2022-12-16T11:25:59.179Z,3.88
2022-12-16T11:26:57.729Z,3.87
2022-12-16T11:27:58.670Z,3.87
2022-12-16T11:28:58.748Z,3.87
2022-12-16T11:29:59.172Z,3.87
2022-12-16T11:30:58.059Z,3.91
2022-12-16T11:32:01.249Z,3.94
2022-12-16T11:32:59.114Z,4.00
2022-12-16T11:33:59.101Z,4.05
2022-12-16T11:34:59.090Z,4.13
2022-12-16T11:35:59.112Z,4.18
2022-12-16T11:36:59.062Z,4.25
2022-12-16T11:37:58.539Z,4.30
2022-12-16T11:38:59.039Z,4.32
2022-12-16T11:39:58.310Z,4.37
2022-12-16T11:40:58.541Z,4.41
2022-12-16T11:41:59.152Z,4.44
2022-12-16T11:43:00.187Z,4.47
2022-12-16T11:44:00.001Z,4.51
2022-12-16T11:44:58.991Z,4.56
2022-12-16T11:45:58.481Z,4.62
2022-12-16T11:46:58.470Z,4.66
2022-12-16T11:47:58.976Z,4.69
2022-12-16T11:48:58.951Z,4.68
2022-12-16T11:49:58.953Z,4.64
2022-12-16T11:50:58.831Z,4.61
2022-12-16T11:52:20.973Z,4.58
2022-12-16T11:52:59.941Z,4.56
2022-12-16T11:53:57.972Z,4.53
2022-12-16T11:54:58.402Z,4.48
2022-12-16T11:56:08.968Z,4.45
2022-12-16T11:56:59.891Z,4.41
2022-12-16T11:57:58.852Z,4.39
2022-12-16T11:58:58.849Z,4.38
2022-12-16T11:59:57.409Z,4.38
2022-12-16T12:00:57.375Z,4.38
2022-12-16T12:01:58.377Z,4.37
2022-12-16T12:02:57.480Z,4.37
2022-12-16T12:03:58.900Z,4.36
2022-12-16T12:04:58.343Z,4.36
2022-12-16T12:05:58.768Z,4.37
2022-12-16T12:06:58.733Z,4.37
2022-12-16T12:07:57.322Z,4.38
2022-12-16T12:08:57.325Z,4.38
2022-12-16T12:09:58.235Z,4.41
2022-12-16T12:10:57.976Z,4.43
2022-12-16T12:11:58.673Z,4.45
2022-12-16T12:12:58.674Z,4.48
2022-12-16T12:13:58.204Z,4.51
2022-12-16T12:14:58.674Z,4.53
2022-12-16T12:15:58.243Z,4.55
2022-12-16T12:16:58.243Z,4.58
2022-12-16T12:17:58.134Z,4.58
2022-12-16T12:18:58.143Z,4.58
2022-12-16T12:19:58.624Z,4.60
2022-12-16T12:20:58.606Z,4.60
2022-12-16T12:21:58.836Z,4.63
2022-12-16T12:22:58.121Z,4.64
2022-12-16T12:23:57.134Z,4.65
2022-12-16T12:24:58.306Z,4.65
2022-12-16T12:25:58.037Z,4.65
2022-12-16T12:26:58.033Z,4.62
2022-12-16T12:27:59.045Z,4.60
2022-12-16T12:28:58.535Z,4.58
2022-12-16T12:29:58.520Z,4.57
2022-12-16T12:30:57.066Z,4.57
2022-12-16T12:31:58.094Z,4.59
2022-12-16T12:32:57.956Z,4.59
2022-12-16T12:33:58.957Z,4.60
2022-12-16T12:34:58.486Z,4.61
2022-12-16T12:35:57.927Z,4.61
2022-12-16T12:36:57.937Z,4.62
2022-12-16T12:37:58.928Z,4.62
2022-12-16T12:38:57.889Z,4.62
2022-12-16T12:39:58.018Z,4.61
2022-12-16T12:40:58.417Z,4.60
2022-12-16T12:41:58.391Z,4.59
2022-12-16T12:42:57.854Z,4.56
2022-12-16T12:43:58.377Z,4.53
2022-12-16T12:44:58.329Z,4.47
2022-12-16T12:45:58.848Z,4.44
2022-12-16T12:46:58.466Z,4.42
2022-12-16T12:47:57.798Z,4.39
2022-12-16T12:48:58.302Z,4.38
2022-12-16T12:49:58.279Z,4.33
2022-12-16T12:50:57.786Z,4.30
2022-12-16T12:51:58.789Z,4.27
2022-12-16T12:52:58.260Z,4.24
2022-12-16T12:53:58.760Z,4.21
2022-12-16T12:54:57.729Z,4.16
2022-12-16T12:55:58.239Z,4.14
2022-12-16T12:56:58.229Z,4.13
2022-12-16T12:57:58.720Z,4.10
2022-12-16T12:58:58.231Z,4.08
2022-12-16T13:00:02.045Z,4.06
2022-12-16T13:00:57.761Z,4.05